Latest Weather Observations for Frankston

IDV60801

Issued at 12:05 am EST Monday 22 September 2014 (issued every 30 minutes, with the page automatically refreshed every 10 minutes)

About weather observations | Map of weather stations | Latest weather observations for VIC | Other Formats
Station Details ID: 086371 Name: FRANKSTON AWS Lat: -38.15 Lon: 145.12 Height: 6.0 m
Data from the previous 72 hours. | See also: Recent months at Frankston
Date/Time
EST
Temp
°C
App
Temp
°C
Dew
Point
Rel
Hum
%
Delta-T
°C
Wind Press
QNH
hPa
Press
MSL
hPa
Rain
since 9 am
mm
Dir
 
Spd
km/h
Gust
km/h
Spd
kts
Gust
kts
22/12:00am 8.7 6.9 5.6 81 1.4 E 4 6 2 3 - - -
 
Date/Time
EST
Temp
°C
App
Temp
°C
Dew
Point
Rel
Hum
%
Delta-T
°C
Wind Press
QNH
hPa
Press
MSL
hPa
Rain
since 9 am
mm
Dir
 
Spd
km/h
Gust
km/h
Spd
kts
Gust
kts
21/11:30pm 9.4 7.7 5.8 78 1.6 ESE 4 6 2 3 - - -
21/11:00pm 9.8 7.7 6.0 77 1.7 ESE 6 7 3 4 - - -
21/10:30pm 9.9 7.8 5.7 75 1.9 ESE 6 7 3 4 - - -
21/10:00pm 10.4 8.3 6.0 74 2.0 ESE 6 7 3 4 - - -
21/09:30pm 10.9 8.9 6.1 72 2.2 ESE 6 7 3 4 - - -
21/09:00pm 11.1 9.0 5.8 70 2.5 SSE 6 13 3 7 - - -
21/08:30pm 11.1 9.0 5.8 70 2.5 SSE 6 11 3 6 - - -
21/08:00pm 11.1 8.9 6.0 71 2.4 S 7 13 4 7 - - -
21/07:30pm 11.2 9.1 5.9 70 2.5 SSE 6 13 3 7 - - -
21/07:00pm 11.4 9.3 5.9 69 2.6 S 6 11 3 6 - - -
21/06:30pm 11.9 9.7 5.5 65 3.0 S 6 9 3 5 - - -
21/06:00pm 12.7 10.4 5.6 62 3.3 S 7 19 4 10 - - -
21/05:30pm 13.6 10.9 5.7 59 3.7 S 9 19 5 10 - - -
21/05:00pm 14.2 11.2 6.1 58 3.9 S 11 19 6 10 - - -
21/04:30pm 13.4 8.7 7.6 68 2.8 WSW 22 28 12 15 - - -
21/04:00pm 13.2 7.8 6.5 64 3.2 WSW 24 28 13 15 - - -
21/03:30pm 13.1 8.2 6.9 66 3.0 WSW 22 24 12 13 - - -
21/03:00pm 13.0 9.0 6.6 65 3.1 W 17 20 9 11 - - -
21/02:30pm 13.0 9.4 6.8 66 3.0 W 15 17 8 9 - - -
21/02:00pm 13.0 8.9 6.1 63 3.3 W 17 19 9 10 - - -
21/01:30pm 13.0 9.3 6.4 64 3.1 W 15 19 8 10 - - -
21/01:00pm 14.6 12.4 5.4 54 4.3 WSW 6 9 3 5 - - -
21/12:30pm 14.3 12.1 5.4 55 4.2 SSE 6 9 3 5 - - -
21/12:00pm 14.9 13.2 5.7 54 4.4 ESE 4 7 2 4 - - -
21/11:30am 13.7 11.3 5.3 57 3.9 SSE 7 11 4 6 - - -
21/11:00am 13.2 10.8 5.1 58 3.8 S 7 17 4 9 - - -
21/10:30am 13.5 11.1 5.2 57 3.9 ESE 7 13 4 7 - - -
21/10:00am 13.4 11.0 5.3 58 3.8 SE 7 13 4 7 - - -
21/09:30am 12.9 10.7 5.1 59 3.6 S 6 9 3 5 - - -
21/09:00am 12.9 11.3 4.6 57 3.8 SSW 2 6 1 3 - - -
21/08:30am 12.8 10.6 5.2 60 3.5 SSE 6 9 3 5 - - -
21/08:00am 12.2 10.5 5.8 65 3.0 S 4 6 2 3 - - -
21/07:30am 11.7 10.4 5.8 67 2.7 S 2 4 1 2 - - -
21/07:00am 11.4 9.6 5.5 67 2.7 SSE 4 4 2 2 - - -
21/06:30am 11.3 9.5 5.2 66 2.8 SE 4 6 2 3 - - -
21/06:00am 11.7 9.4 4.9 63 3.1 SSE 6 6 3 3 - - -
21/05:30am 11.6 9.8 5.3 65 2.9 ESE 4 6 2 3 - - -
21/05:00am 11.3 9.9 5.4 67 2.7 SE 2 6 1 3 - - -
21/04:30am 11.6 9.8 5.5 66 2.8 S 4 6 2 3 - - -
21/04:00am 11.3 9.2 5.8 69 2.6 S 6 7 3 4 - - -
21/03:30am 11.4 9.8 6.5 72 2.3 SSE 4 6 2 3 - - -
21/03:00am 11.4 9.5 6.9 74 2.1 SW 6 7 3 4 - - -
21/02:30am 11.5 9.5 6.4 71 2.4 S 6 7 3 4 - - -
21/02:00am 11.3 9.9 7.4 77 1.9 SSE 4 6 2 3 - - -
21/01:30am 11.4 10.1 7.7 78 1.8 S 4 6 2 3 - - -
21/01:00am 11.2 10.0 7.9 80 1.6 SSW 4 6 2 3 - - -
21/12:30am 11.3 10.0 7.8 79 1.7 S 4 7 2 4 - - -
21/12:00am 11.3 10.0 7.8 79 1.7 SE 4 7 2 4 - - -
 
Date/Time
EST
Temp
°C
App
Temp
°C
Dew
Point
Rel
Hum
%
Delta-T
°C
Wind Press
QNH
hPa
Press
MSL
hPa
Rain
since 9 am
mm
Dir
 
Spd
km/h
Gust
km/h
Spd
kts
Gust
kts
20/11:30pm 11.3 10.1 8.2 81 1.5 S 4 7 2 4 - - -
20/11:00pm 10.7 9.8 7.8 82 1.4 S 2 4 1 2 - - -
20/10:30pm 11.1 9.9 8.0 81 1.5 SW 4 6 2 3 - - -
20/10:00pm 11.3 9.5 8.0 80 1.6 WSW 7 9 4 5 - - -
20/09:30pm 11.4 9.8 8.1 80 1.6 S 6 9 3 5 - - -
20/09:00pm 11.1 9.9 8.0 81 1.5 SSE 4 6 2 3 - - -
20/08:30pm 11.1 8.8 7.6 79 1.7 S 9 17 5 9 - - -
20/08:00pm 11.8 10.1 7.5 75 2.1 S 6 9 3 5 - - -
20/07:30pm 11.6 9.8 7.1 74 2.2 S 6 9 3 5 - - -
20/07:00pm 12.2 10.5 7.5 73 2.3 SSW 6 11 3 6 - - -
20/06:30pm 12.3 10.4 7.6 73 2.3 S 7 13 4 7 - - -
20/06:00pm 12.5 10.2 7.6 72 2.4 S 9 15 5 8 - - -
20/05:30pm 12.8 10.2 7.7 71 2.5 S 11 20 6 11 - - -
20/05:00pm 13.0 10.3 7.5 69 2.7 S 11 22 6 12 - - -
20/04:30pm 13.5 10.5 7.9 69 2.8 SSW 13 22 7 12 - - -
20/04:00pm 13.6 10.1 7.4 66 3.0 S 15 26 8 14 - - -
20/03:30pm 13.6 10.1 7.4 66 3.0 SSW 15 26 8 14 - - -
20/03:00pm 13.6 11.1 8.0 69 2.8 S 11 19 6 10 - - -
20/02:30pm 13.5 9.3 7.3 66 3.0 SW 19 26 10 14 - - -
20/02:00pm 13.0 7.8 7.2 68 2.8 WSW 24 28 13 15 - - -
20/01:30pm 12.8 7.4 7.9 72 2.4 WSW 26 30 14 16 - - -
20/01:00pm 12.3 7.6 7.8 74 2.2 WSW 22 26 12 14 - - -
20/12:30pm 12.1 6.7 7.8 75 2.1 WSW 26 32 14 17 - - -
20/12:00pm 13.5 11.3 7.9 69 2.8 SSW 9 17 5 9 - - -
20/11:30am 13.5 10.5 7.5 67 2.9 SSW 13 20 7 11 - - -
20/11:00am 13.0 10.6 7.2 68 2.8 SW 9 15 5 8 - - -
20/10:30am 13.1 10.4 7.3 68 2.8 SSW 11 19 6 10 - - -
20/10:00am 13.3 10.3 7.5 68 2.8 SW 13 20 7 11 - - -
20/09:30am 13.1 11.4 8.2 72 2.4 S 7 15 4 8 - - -
20/09:00am 12.5 9.9 7.8 73 2.3 S 11 22 6 12 - - -
20/08:30am 12.2 10.5 8.5 78 1.8 S 7 17 4 9 - - -
20/08:00am 11.6 9.1 8.3 80 1.6 SW 11 19 6 10 - - -
20/07:30am 10.8 8.6 7.7 81 1.5 SW 9 15 5 8 - - -
20/07:00am 10.6 8.0 7.7 82 1.4 SSW 11 17 6 9 - - -
20/06:30am 10.1 8.2 7.5 84 1.2 SSW 7 13 4 7 - - -
20/06:00am 10.0 7.4 7.8 86 1.1 SW 11 17 6 9 - - -
20/05:30am 10.2 8.3 7.4 83 1.3 SSW 7 9 4 5 - - -
20/05:00am 10.1 7.7 7.2 82 1.4 SW 9 11 5 6 - - -
20/04:30am 10.5 7.1 6.1 74 2.0 SW 13 17 7 9 - - -
20/04:00am 10.6 8.5 6.0 73 2.1 S 6 9 3 5 - - -
20/03:30am 11.0 8.5 6.6 74 2.1 SSW 9 11 5 6 - - -
20/03:00am 10.6 8.6 6.2 74 2.0 SSW 6 9 3 5 - - -
20/02:30am 10.9 8.3 6.3 73 2.2 SSW 9 11 5 6 - - -
20/02:00am 10.8 8.8 6.2 73 2.1 S 6 7 3 4 - - -
20/01:30am 11.3 8.8 6.4 72 2.3 SW 9 13 5 7 - - -
20/01:00am 11.3 9.3 6.4 72 2.3 S 6 9 3 5 - - -
20/12:30am 11.1 9.2 6.5 73 2.2 S 6 9 3 5 - - -
20/12:00am 11.5 9.0 6.6 72 2.3 SW 9 11 5 6 - - -
 
Date/Time
EST
Temp
°C
App
Temp
°C
Dew
Point
Rel
Hum
%
Delta-T
°C
Wind Press
QNH
hPa
Press
MSL
hPa
Rain
since 9 am
mm
Dir
 
Spd
km/h
Gust
km/h
Spd
kts
Gust
kts
19/11:30pm 11.4 8.8 6.1 70 2.5 SW 9 15 5 8 - - -
19/11:00pm 11.0 8.7 5.7 70 2.4 SSW 7 11 4 6 - - -
19/10:30pm 11.2 8.9 5.5 68 2.6 S 7 11 4 6 - - -
19/10:00pm 11.7 9.5 5.3 65 2.9 S 6 9 3 5 - - -
19/09:30pm 11.4 9.1 5.5 67 2.7 S 7 11 4 6 - - -
19/09:00pm 11.3 9.2 5.8 69 2.6 S 6 9 3 5 - - -
19/08:30pm 11.5 9.4 6.0 69 2.6 S 6 7 3 4 - - -
19/08:00pm 11.8 9.8 6.1 68 2.7 SSW 6 9 3 5 - - -
19/07:30pm 12.0 9.7 5.6 65 3.0 SSW 7 13 4 7 - - -
19/07:00pm 12.5 9.5 5.9 64 3.1 SW 11 17 6 9 - - -
19/06:30pm 12.7 8.9 5.6 62 3.3 SW 15 19 8 10 - - -
19/06:00pm 12.9 9.2 6.3 64 3.1 SW 15 22 8 12 - - -
19/05:30pm 12.8 8.0 7.5 70 2.6 WSW 22 26 12 14 - - -
19/05:00pm 12.8 8.0 7.5 70 2.6 WSW 22 26 12 14 - - -
19/04:30pm 12.9 8.1 7.4 69 2.7 WSW 22 28 12 15 - - -
19/04:00pm 12.8 8.0 7.5 70 2.6 WSW 22 26 12 14 - - -
19/03:30pm 12.9 7.2 6.9 67 2.9 WSW 26 30 14 16 - - -
19/03:00pm 12.9 7.7 7.4 69 2.7 WSW 24 30 13 16 - - -
19/02:30pm 12.8 8.3 6.8 67 2.9 WSW 20 24 11 13 - - -
19/02:00pm 13.8 8.7 6.2 60 3.6 WSW 22 30 12 16 - - -
19/01:30pm 12.8 6.8 7.0 68 2.8 WSW 28 35 15 19 - - -
19/01:00pm 12.7 7.9 5.8 63 3.2 WSW 20 24 11 13 - - -
19/12:30pm 11.4 7.3 8.6 83 1.4 W 20 26 11 14 - - -
19/12:00pm 11.7 7.5 8.4 80 1.6 W 20 24 11 13 - - -
19/11:30am 11.5 7.5 8.4 81 1.5 W 19 20 10 11 - - -
19/11:00am 11.4 7.8 8.3 81 1.5 WNW 17 22 9 12 - - -
19/10:30am 11.3 7.8 7.4 77 1.9 W 15 20 8 11 - - -
19/10:00am 10.8 7.5 8.2 84 1.3 W 15 17 8 9 - - -
19/09:30am 10.9 6.3 8.0 82 1.4 W 22 26 12 14 - - -
19/09:00am 11.1 6.3 7.4 78 1.8 W 22 26 12 14 - - -
19/08:30am 10.6 6.7 7.3 80 1.6 WNW 17 20 9 11 - - -
19/08:00am 10.7 6.9 7.6 81 1.5 W 17 19 9 10 - - -
19/07:30am 10.5 7.0 7.4 81 1.5 W 15 19 8 10 - - -
19/07:00am 10.4 6.2 7.5 82 1.4 WNW 19 22 10 12 - - -
19/06:30am 10.5 6.7 7.4 81 1.5 W 17 19 9 10 - - -
19/06:00am 10.5 6.3 7.6 82 1.4 W 19 20 10 11 - - -
19/05:30am 10.2 7.9 7.4 83 1.3 WSW 9 15 5 8 - - -
19/05:00am 9.5 7.5 7.1 85 1.1 SSW 7 13 4 7 - - -
19/04:30am 10.2 7.1 7.1 81 1.5 W 13 17 7 9 - - -
19/04:00am 9.9 6.0 7.3 84 1.2 W 17 19 9 10 - - -
19/03:30am 10.1 5.7 7.3 83 1.3 W 20 24 11 13 - - -
19/03:00am 9.8 5.0 7.4 85 1.1 W 22 26 12 14 - - -
19/02:30am 10.4 6.1 7.1 80 1.6 W 19 24 10 13 - - -
19/02:00am 10.5 6.2 7.2 80 1.6 W 19 26 10 14 - - -
19/01:30am 10.0 6.1 6.9 81 1.5 WNW 17 19 9 10 - - -
19/01:00am 10.0 6.2 7.4 84 1.2 WNW 17 20 9 11 - - -
19/12:30am 10.6 9.1 5.2 69 2.5 SW 2 11 1 6 - - -

Other Formats:

Comma delimited format used in spreadsheet applications
http://www.bom.gov.au/fwo/IDV60801/IDV60801.94871.axf

JavaScript Object Notation format (JSON) in row-major order
http://www.bom.gov.au/fwo/IDV60801/IDV60801.94871.json